createdAt,value
2019-04-21T00:00:29.719Z,102683.44
2019-04-21T00:05:54.596Z,102685.23
2019-04-21T00:11:00.828Z,102681.37
2019-04-21T00:15:46.357Z,102685.64
2019-04-21T00:20:49.533Z,102680.29
2019-04-21T00:25:57.703Z,102672.70
2019-04-21T00:31:07.304Z,102670.45
2019-04-21T00:35:59.772Z,102663.74
2019-04-21T00:41:19.604Z,102654.91
2019-04-21T00:46:08.498Z,102643.13
2019-04-21T00:51:33.227Z,102639.22
2019-04-21T00:56:30.427Z,102635.31
2019-04-21T01:01:31.437Z,102625.66
2019-04-21T01:06:38.137Z,102617.33
2019-04-21T01:11:44.876Z,102619.78
2019-04-21T01:16:45.836Z,102603.55
2019-04-21T01:21:25.053Z,102602.16
2019-04-21T01:26:39.059Z,102592.00
2019-04-21T01:31:51.103Z,102596.50
2019-04-21T01:36:49.796Z,102585.31
2019-04-21T01:41:57.591Z,102582.05
2019-04-21T01:46:56.361Z,102576.23
2019-04-21T01:52:17.624Z,102572.36
2019-04-21T01:57:07.582Z,102566.13
2019-04-21T02:02:11.142Z,102566.67
2019-04-21T02:07:17.646Z,102570.57
2019-04-21T02:12:20.697Z,102557.36
2019-04-21T02:17:26.481Z,102558.44
2019-04-21T02:22:43.130Z,102555.15
2019-04-21T02:27:30.964Z,102551.83
2019-04-21T02:32:43.876Z,102545.72
2019-04-21T02:37:54.905Z,102540.72
2019-04-21T02:43:00.226Z,102533.77
2019-04-21T02:58:25.258Z,102508.96
2019-04-21T03:03:09.233Z,102506.65
2019-04-21T03:08:22.823Z,102503.71
2019-04-21T03:13:14.357Z,102490.49
2019-04-21T03:18:22.587Z,102484.84
2019-04-21T03:28:25.181Z,102467.77
2019-04-21T03:33:59.563Z,102460.41
2019-04-21T03:38:37.510Z,102464.55
2019-04-21T03:43:40.139Z,102459.80
2019-04-21T03:49:02.293Z,102459.59
2019-04-21T03:53:44.528Z,102463.25
2019-04-21T03:58:54.406Z,102450.75
2019-04-21T04:09:06.406Z,102445.41
2019-04-21T04:14:03.468Z,102435.89
2019-04-21T04:18:57.693Z,102428.45
2019-04-21T04:29:12.185Z,102423.00
2019-04-21T04:34:14.624Z,102420.57
2019-04-21T04:39:36.313Z,102422.28
2019-04-21T04:44:23.206Z,102410.27
2019-04-21T04:49:38.979Z,102405.22
2019-04-21T04:54:39.112Z,102406.33
2019-04-21T05:09:39.620Z,102414.80
2019-04-21T05:14:39.009Z,102404.92
2019-04-21T05:19:55.756Z,102404.48
2019-04-21T05:24:33.301Z,102398.64
2019-04-21T05:29:49.807Z,102409.06
2019-04-21T05:34:42.770Z,102409.75
2019-04-21T05:39:47.978Z,102402.82
2019-04-21T05:45:01.807Z,102398.27
2019-04-21T05:49:55.486Z,102399.59
2019-04-21T05:55:12.342Z,102400.60
2019-04-21T06:00:08.835Z,102385.36
2019-04-21T06:05:20.626Z,102388.16
2019-04-21T06:10:12.409Z,102392.57
2019-04-21T06:15:27.070Z,102390.50
2019-04-21T06:20:30.749Z,102397.78
2019-04-21T06:25:54.956Z,102396.02
2019-04-21T06:30:35.987Z,102396.47
2019-04-21T06:35:52.959Z,102402.91
2019-04-21T06:40:46.254Z,102396.33
2019-04-21T06:45:51.189Z,102390.32
2019-04-21T06:50:52.962Z,102396.84
2019-04-21T06:55:52.021Z,102401.80
2019-04-21T07:00:58.794Z,102389.44
2019-04-21T07:06:03.455Z,102392.21
2019-04-21T07:11:04.011Z,102383.23
2019-04-21T07:16:12.012Z,102384.59
2019-04-21T07:21:09.625Z,102382.33
2019-04-21T07:26:10.486Z,102377.25
2019-04-21T07:31:17.851Z,102376.27
2019-04-21T07:36:28.275Z,102374.00
2019-04-21T07:41:15.969Z,102363.89
2019-04-21T07:46:19.845Z,102360.88
2019-04-21T07:51:31.579Z,102363.95
2019-04-21T07:56:19.914Z,102364.56
2019-04-21T08:01:35.301Z,102350.56
2019-04-21T08:06:40.574Z,102348.23
2019-04-21T08:11:38.321Z,102343.09
2019-04-21T08:16:51.063Z,102341.28
2019-04-21T08:22:03.829Z,102339.16
2019-04-21T08:26:58.566Z,102330.16
2019-04-21T08:32:03.079Z,102328.59
2019-04-21T08:37:02.703Z,102322.13
2019-04-21T08:42:08.558Z,102313.67
2019-04-21T08:47:14.094Z,102313.72
2019-04-21T08:52:20.935Z,102309.78
2019-04-21T08:57:25.729Z,102311.37
2019-04-21T09:02:23.726Z,102313.58
2019-04-21T09:07:28.430Z,102294.75
2019-04-21T09:12:29.489Z,102283.72
2019-04-21T09:17:25.023Z,102283.00
2019-04-21T09:22:37.734Z,102273.42
2019-04-21T09:27:38.972Z,102258.41
2019-04-21T09:32:26.780Z,102252.84
2019-04-21T09:37:39.330Z,102243.42
2019-04-21T09:42:35.965Z,102243.75
2019-04-21T09:47:40.137Z,102245.13
2019-04-21T09:52:45.149Z,102235.92
2019-04-21T09:57:47.476Z,102234.89
2019-04-21T10:02:53.512Z,102208.91
2019-04-21T10:07:48.828Z,102194.27
2019-04-21T10:12:51.887Z,102194.27
2019-04-21T10:17:54.066Z,102189.50
2019-04-21T10:22:55.634Z,102183.33
2019-04-21T10:27:57.301Z,102185.11
2019-04-21T10:33:00.741Z,102165.92
2019-04-21T10:38:14.973Z,102163.23
2019-04-21T10:43:09.963Z,102155.05
2019-04-21T10:48:10.827Z,102144.66
2019-04-21T10:53:13.395Z,102139.13
2019-04-21T10:58:16.244Z,102130.11
2019-04-21T11:03:19.128Z,102128.34
2019-04-21T11:08:23.646Z,102120.30
2019-04-21T11:13:24.623Z,102113.05
2019-04-21T11:18:26.498Z,102102.22
2019-04-21T11:23:29.018Z,102102.16
2019-04-21T11:28:31.192Z,102098.45
2019-04-21T11:33:33.411Z,102093.97
2019-04-21T11:38:51.301Z,102086.58
2019-04-21T11:43:39.124Z,102075.41
2019-04-21T11:48:42.055Z,102075.41
2019-04-21T11:53:43.738Z,102068.44
2019-04-21T11:58:45.808Z,102057.43
2019-04-21T12:03:47.898Z,102057.08
2019-04-21T12:08:52.945Z,102046.65
2019-04-21T12:13:54.267Z,102043.25
2019-04-21T12:18:56.791Z,102043.09
2019-04-21T12:23:58.890Z,102036.72
2019-04-21T12:29:01.732Z,102027.61
2019-04-21T12:34:03.701Z,102023.29
2019-04-21T12:39:08.453Z,102009.52
2019-04-21T12:44:10.880Z,101998.25
2019-04-21T12:49:13.774Z,101991.49
2019-04-21T12:54:15.555Z,101985.05
2019-04-21T12:59:17.107Z,101968.91
2019-04-21T13:04:19.752Z,101963.50
2019-04-21T13:09:22.265Z,101952.23
2019-04-21T13:14:24.413Z,101940.71
2019-04-21T13:19:27.245Z,101937.09
2019-04-21T13:24:29.599Z,101931.14
2019-04-21T13:29:32.279Z,101928.92
2019-04-21T13:34:33.955Z,101920.63
2019-04-21T13:40:03.391Z,101906.94
2019-04-21T13:44:39.222Z,101904.92
2019-04-21T13:49:41.524Z,101894.84
2019-04-21T13:54:43.333Z,101883.59
2019-04-21T13:59:44.879Z,101870.17
2019-04-21T14:04:47.371Z,101872.42
2019-04-21T14:09:56.035Z,101861.45
2019-04-21T14:14:52.601Z,101843.20
2019-04-21T14:19:55.223Z,101845.83
2019-04-21T14:24:57.243Z,101845.13
2019-04-21T14:29:58.848Z,101842.12
2019-04-21T14:35:00.898Z,101827.53
2019-04-21T14:40:07.503Z,101822.30
2019-04-21T14:45:07.034Z,101813.75
2019-04-21T14:50:09.320Z,101806.83
2019-04-21T14:55:12.198Z,101809.37
2019-04-21T15:00:15.353Z,101805.34
2019-04-21T15:05:17.589Z,101790.69
2019-04-21T15:10:25.215Z,101790.47
2019-04-21T15:15:23.526Z,101788.54
2019-04-21T15:20:25.703Z,101781.67
2019-04-21T15:25:30.195Z,101771.94
2019-04-21T15:30:32.485Z,101773.19
2019-04-21T15:35:35.263Z,101770.57
2019-04-21T15:40:44.601Z,101763.00
2019-04-21T15:45:40.788Z,101758.55
2019-04-21T15:50:42.332Z,101758.84
2019-04-21T15:55:44.528Z,101747.16
2019-04-21T16:00:46.827Z,101739.84
2019-04-21T16:05:48.815Z,101735.77
2019-04-21T16:10:56.190Z,101724.25
2019-04-21T16:15:54.565Z,101719.41
2019-04-21T16:20:57.656Z,101707.84
2019-04-21T16:25:59.789Z,101703.65
2019-04-21T16:31:02.504Z,101700.80
2019-04-21T16:36:05.466Z,101698.24
2019-04-21T16:41:10.584Z,101692.35
2019-04-21T16:46:11.128Z,101692.72
2019-04-21T16:51:13.286Z,101680.68
2019-04-21T16:56:15.310Z,101679.78
2019-04-21T17:01:20.011Z,101676.58
2019-04-21T17:06:20.473Z,101670.11
2019-04-21T17:11:28.680Z,101667.77
2019-04-21T17:17:02.929Z,101657.48
2019-04-21T17:21:30.156Z,101658.71
2019-04-21T17:26:35.567Z,101651.17
2019-04-21T17:31:37.085Z,101647.97
2019-04-21T17:36:39.265Z,101641.95
2019-04-21T17:41:55.974Z,101639.26
2019-04-21T17:46:53.641Z,101644.22
2019-04-21T17:51:57.023Z,101636.35
2019-04-21T17:57:20.206Z,101645.66
2019-04-21T18:02:23.234Z,101633.48
2019-04-21T18:07:26.129Z,101634.00
2019-04-21T18:12:24.966Z,101627.02
2019-04-21T18:17:11.560Z,101631.62
2019-04-21T18:22:14.629Z,101629.23
2019-04-21T18:27:17.510Z,101630.26
2019-04-21T18:32:26.367Z,101630.26
2019-04-21T18:37:33.098Z,101630.35
2019-04-21T18:42:45.257Z,101625.89
2019-04-21T18:47:47.182Z,101628.09
2019-04-21T18:52:51.126Z,101627.13
2019-04-21T18:57:44.431Z,101625.69
2019-04-21T19:02:47.724Z,101631.74
2019-04-21T19:08:03.054Z,101630.36
2019-04-21T19:13:29.087Z,101631.85
2019-04-21T19:23:19.197Z,101639.34
2019-04-21T19:28:17.985Z,101635.06
2019-04-21T19:33:22.413Z,101637.48
2019-04-21T19:38:12.222Z,101637.59
2019-04-21T19:43:31.449Z,101637.78
2019-04-21T19:48:42.778Z,101633.64
2019-04-21T19:53:35.299Z,101632.55
2019-04-21T19:58:31.218Z,101629.52
2019-04-21T20:03:28.474Z,101628.73
2019-04-21T20:08:44.681Z,101625.25
2019-04-21T20:14:03.294Z,101624.09
2019-04-21T20:18:44.109Z,101624.27
2019-04-21T20:23:43.212Z,101621.77
2019-04-21T20:28:56.915Z,101631.28
2019-04-21T20:34:11.122Z,101621.28
2019-04-21T20:39:03.513Z,101622.92
2019-04-21T20:44:17.215Z,101616.02
2019-04-21T20:49:19.084Z,101613.49
2019-04-21T20:54:28.591Z,101618.98
2019-04-21T20:59:30.438Z,101614.28
2019-04-21T21:04:29.610Z,101612.38
2019-04-21T21:09:33.959Z,101603.85
2019-04-21T21:14:42.316Z,101597.08
2019-04-21T21:19:49.985Z,101593.75
2019-04-21T21:24:53.416Z,101592.92
2019-04-21T21:29:50.131Z,101588.41
2019-04-21T21:34:57.197Z,101588.03
2019-04-21T21:40:08.293Z,101581.78
2019-04-21T21:44:54.600Z,101583.84
2019-04-21T21:50:01.124Z,101576.55
2019-04-21T21:54:55.811Z,101576.27
2019-04-21T22:00:03.321Z,101561.36
2019-04-21T22:05:09.461Z,101571.32
2019-04-21T22:10:06.482Z,101560.80
2019-04-21T22:15:14.600Z,101557.98
2019-04-21T22:20:33.544Z,101550.12
2019-04-21T22:25:22.591Z,101549.73
2019-04-21T22:30:26.079Z,101544.64
2019-04-21T22:35:30.080Z,101537.72
2019-04-21T22:40:41.574Z,101536.53
2019-04-21T22:45:29.327Z,101540.66
2019-04-21T22:50:32.768Z,101535.46
2019-04-21T22:55:35.300Z,101532.66
2019-04-21T23:00:44.434Z,101529.84
2019-04-21T23:05:43.511Z,101528.79
2019-04-21T23:10:49.586Z,101515.97
2019-04-21T23:15:53.664Z,101515.97
2019-04-21T23:21:08.472Z,101517.29
2019-04-21T23:26:14.500Z,101509.75
2019-04-21T23:31:18.709Z,101506.27
2019-04-21T23:36:11.362Z,101501.64
2019-04-21T23:41:08.992Z,101498.06
2019-04-21T23:46:19.820Z,101489.31
2019-04-21T23:51:25.502Z,101479.09
2019-04-21T23:56:21.679Z,101475.20
